sensor_id;sensor_type;location;lat;lon;timestamp;P1;durP1;ratioP1;P2;durP2;ratioP2
928;SDS011;451;47.988;7.842;2023-08-24T00:01:29;10.50;;;9.53;;
928;SDS011;451;47.988;7.842;2023-08-24T00:10:34;10.33;;;9.53;;
928;SDS011;451;47.988;7.842;2023-08-24T00:19:37;10.67;;;9.77;;
928;SDS011;451;47.988;7.842;2023-08-24T00:28:42;10.70;;;9.20;;
928;SDS011;451;47.988;7.842;2023-08-24T00:37:45;10.00;;;9.23;;
928;SDS011;451;47.988;7.842;2023-08-24T00:46:52;10.27;;;9.30;;
928;SDS011;451;47.988;7.842;2023-08-24T00:55:55;9.50;;;8.83;;
928;SDS011;451;47.988;7.842;2023-08-24T01:05:01;9.30;;;8.60;;
928;SDS011;451;47.988;7.842;2023-08-24T01:14:08;8.80;;;8.10;;
928;SDS011;451;47.988;7.842;2023-08-24T01:23:26;8.87;;;8.20;;
928;SDS011;451;47.988;7.842;2023-08-24T01:32:38;9.23;;;8.53;;
928;SDS011;451;47.988;7.842;2023-08-24T01:41:41;9.77;;;9.07;;
928;SDS011;451;47.988;7.842;2023-08-24T01:50:47;9.93;;;9.13;;
928;SDS011;451;47.988;7.842;2023-08-24T01:59:52;9.60;;;8.70;;
928;SDS011;451;47.988;7.842;2023-08-24T02:08:57;9.10;;;8.30;;
928;SDS011;451;47.988;7.842;2023-08-24T02:18:00;8.97;;;8.23;;
928;SDS011;451;47.988;7.842;2023-08-24T02:27:05;8.30;;;7.70;;
928;SDS011;451;47.988;7.842;2023-08-24T02:36:08;8.37;;;7.67;;
928;SDS011;451;47.988;7.842;2023-08-24T02:45:13;8.97;;;8.27;;
928;SDS011;451;47.988;7.842;2023-08-24T02:54:16;9.73;;;7.67;;
928;SDS011;451;47.988;7.842;2023-08-24T03:03:21;9.37;;;8.50;;
928;SDS011;451;47.988;7.842;2023-08-24T03:12:27;10.07;;;9.00;;
928;SDS011;451;47.988;7.842;2023-08-24T03:21:32;9.40;;;8.70;;
928;SDS011;451;47.988;7.842;2023-08-24T03:30:36;9.43;;;8.70;;
928;SDS011;451;47.988;7.842;2023-08-24T03:39:42;9.70;;;8.83;;
928;SDS011;451;47.988;7.842;2023-08-24T03:48:45;10.30;;;8.80;;
928;SDS011;451;47.988;7.842;2023-08-24T03:57:49;9.40;;;8.60;;
928;SDS011;451;47.988;7.842;2023-08-24T04:06:53;8.80;;;7.90;;
928;SDS011;451;47.988;7.842;2023-08-24T04:15:59;10.93;;;10.07;;
928;SDS011;451;47.988;7.842;2023-08-24T04:25:02;8.77;;;8.07;;
928;SDS011;451;47.988;7.842;2023-08-24T04:34:07;8.40;;;7.70;;
928;SDS011;451;47.988;7.842;2023-08-24T04:43:11;8.57;;;7.87;;
928;SDS011;451;47.988;7.842;2023-08-24T04:52:15;8.60;;;7.80;;
928;SDS011;451;47.988;7.842;2023-08-24T05:01:18;8.70;;;8.00;;
928;SDS011;451;47.988;7.842;2023-08-24T05:10:23;8.80;;;8.10;;
928;SDS011;451;47.988;7.842;2023-08-24T05:19:26;8.37;;;7.67;;
928;SDS011;451;47.988;7.842;2023-08-24T05:28:31;9.27;;;8.57;;
928;SDS011;451;47.988;7.842;2023-08-24T05:37:35;9.30;;;8.60;;
928;SDS011;451;47.988;7.842;2023-08-24T05:46:39;12.70;;;9.10;;
928;SDS011;451;47.988;7.842;2023-08-24T05:55:43;10.50;;;9.60;;
928;SDS011;451;47.988;7.842;2023-08-24T06:04:47;11.87;;;10.93;;
928;SDS011;451;47.988;7.842;2023-08-24T06:13:52;13.60;;;12.40;;
928;SDS011;451;47.988;7.842;2023-08-24T06:22:57;12.97;;;11.40;;
928;SDS011;451;47.988;7.842;2023-08-24T06:32:00;12.60;;;11.60;;
928;SDS011;451;47.988;7.842;2023-08-24T06:41:05;13.30;;;12.20;;
928;SDS011;451;47.988;7.842;2023-08-24T06:50:10;13.67;;;12.60;;
928;SDS011;451;47.988;7.842;2023-08-24T06:59:15;14.73;;;13.40;;
928;SDS011;451;47.988;7.842;2023-08-24T07:08:18;17.70;;;12.03;;
928;SDS011;451;47.988;7.842;2023-08-24T07:17:22;16.77;;;15.37;;
928;SDS011;451;47.988;7.842;2023-08-24T07:26:26;13.10;;;11.80;;
928;SDS011;451;47.988;7.842;2023-08-24T07:35:30;12.97;;;11.80;;
928;SDS011;451;47.988;7.842;2023-08-24T07:44:34;13.50;;;11.87;;
928;SDS011;451;47.988;7.842;2023-08-24T07:53:38;12.77;;;11.60;;
928;SDS011;451;47.988;7.842;2023-08-24T08:02:42;11.73;;;10.87;;
928;SDS011;451;47.988;7.842;2023-08-24T08:11:46;10.13;;;9.17;;
928;SDS011;451;47.988;7.842;2023-08-24T08:20:50;11.33;;;10.13;;
928;SDS011;451;47.988;7.842;2023-08-24T08:29:55;11.70;;;10.63;;
928;SDS011;451;47.988;7.842;2023-08-24T08:38:58;9.90;;;9.10;;
928;SDS011;451;47.988;7.842;2023-08-24T08:48:03;9.37;;;8.77;;
928;SDS011;451;47.988;7.842;2023-08-24T08:57:08;10.80;;;9.80;;
928;SDS011;451;47.988;7.842;2023-08-24T09:06:13;10.50;;;9.30;;
928;SDS011;451;47.988;7.842;2023-08-24T09:15:23;10.40;;;9.30;;
928;SDS011;451;47.988;7.842;2023-08-24T09:24:32;11.83;;;10.87;;
928;SDS011;451;47.988;7.842;2023-08-24T09:33:36;12.20;;;11.10;;
928;SDS011;451;47.988;7.842;2023-08-24T09:42:41;12.90;;;11.80;;
928;SDS011;451;47.988;7.842;2023-08-24T09:51:45;12.00;;;10.90;;
928;SDS011;451;47.988;7.842;2023-08-24T10:00:50;11.17;;;10.27;;
928;SDS011;451;47.988;7.842;2023-08-24T10:09:56;11.63;;;10.83;;
928;SDS011;451;47.988;7.842;2023-08-24T10:19:06;11.37;;;10.57;;
928;SDS011;451;47.988;7.842;2023-08-24T10:28:10;13.07;;;11.70;;
928;SDS011;451;47.988;7.842;2023-08-24T10:37:15;10.73;;;10.03;;
928;SDS011;451;47.988;7.842;2023-08-24T10:46:19;10.93;;;10.20;;
928;SDS011;451;47.988;7.842;2023-08-24T10:55:25;11.90;;;11.00;;
928;SDS011;451;47.988;7.842;2023-08-24T11:04:29;10.20;;;9.50;;
928;SDS011;451;47.988;7.842;2023-08-24T11:13:33;11.60;;;10.70;;
928;SDS011;451;47.988;7.842;2023-08-24T11:22:37;10.07;;;9.47;;
928;SDS011;451;47.988;7.842;2023-08-24T11:31:42;11.33;;;10.40;;
928;SDS011;451;47.988;7.842;2023-08-24T11:40:45;10.70;;;10.03;;
928;SDS011;451;47.988;7.842;2023-08-24T11:49:49;9.57;;;8.97;;
928;SDS011;451;47.988;7.842;2023-08-24T11:58:52;11.33;;;10.53;;
928;SDS011;451;47.988;7.842;2023-08-24T12:07:57;11.07;;;10.27;;
928;SDS011;451;47.988;7.842;2023-08-24T12:17:06;10.80;;;9.87;;
928;SDS011;451;47.988;7.842;2023-08-24T12:26:18;11.03;;;10.13;;
928;SDS011;451;47.988;7.842;2023-08-24T12:35:21;9.93;;;9.20;;
928;SDS011;451;47.988;7.842;2023-08-24T12:44:26;9.80;;;9.00;;
928;SDS011;451;47.988;7.842;2023-08-24T12:53:29;10.23;;;9.52;;
928;SDS011;451;47.988;7.842;2023-08-24T13:02:35;10.03;;;9.10;;
928;SDS011;451;47.988;7.842;2023-08-24T13:11:39;11.33;;;10.43;;
928;SDS011;451;47.988;7.842;2023-08-24T13:20:43;10.47;;;9.30;;
928;SDS011;451;47.988;7.842;2023-08-24T13:29:47;10.55;;;9.45;;
928;SDS011;451;47.988;7.842;2023-08-24T13:38:53;9.00;;;8.20;;
928;SDS011;451;47.988;7.842;2023-08-24T13:47:56;9.70;;;8.70;;
928;SDS011;451;47.988;7.842;2023-08-24T13:57:01;9.50;;;7.53;;
928;SDS011;451;47.988;7.842;2023-08-24T14:06:04;9.00;;;8.18;;
928;SDS011;451;47.988;7.842;2023-08-24T14:15:09;13.43;;;9.35;;
928;SDS011;451;47.988;7.842;2023-08-24T14:24:13;11.73;;;7.45;;
928;SDS011;451;47.988;7.842;2023-08-24T14:33:18;7.22;;;6.53;;
928;SDS011;451;47.988;7.842;2023-08-24T14:42:21;8.20;;;6.43;;
928;SDS011;451;47.988;7.842;2023-08-24T14:51:26;8.95;;;6.50;;
928;SDS011;451;47.988;7.842;2023-08-24T15:00:29;10.27;;;7.13;;
928;SDS011;451;47.988;7.842;2023-08-24T15:09:33;9.70;;;7.63;;
928;SDS011;451;47.988;7.842;2023-08-24T15:18:37;9.80;;;8.83;;
928;SDS011;451;47.988;7.842;2023-08-24T15:27:41;11.80;;;10.80;;
928;SDS011;451;47.988;7.842;2023-08-24T15:36:45;12.43;;;11.40;;
928;SDS011;451;47.988;7.842;2023-08-24T15:45:50;13.27;;;11.90;;
928;SDS011;451;47.988;7.842;2023-08-24T15:54:54;12.13;;;11.13;;
928;SDS011;451;47.988;7.842;2023-08-24T16:03:58;13.13;;;11.87;;
928;SDS011;451;47.988;7.842;2023-08-24T16:13:01;14.40;;;13.00;;
928;SDS011;451;47.988;7.842;2023-08-24T16:22:06;15.27;;;13.90;;
928;SDS011;451;47.988;7.842;2023-08-24T16:31:09;13.63;;;12.00;;
928;SDS011;451;47.988;7.842;2023-08-24T16:40:14;13.50;;;12.47;;
928;SDS011;451;47.988;7.842;2023-08-24T16:49:17;15.00;;;13.80;;
928;SDS011;451;47.988;7.842;2023-08-24T16:58:22;13.93;;;12.67;;
928;SDS011;451;47.988;7.842;2023-08-24T17:07:25;13.53;;;12.47;;
928;SDS011;451;47.988;7.842;2023-08-24T17:16:30;15.00;;;13.57;;
928;SDS011;451;47.988;7.842;2023-08-24T17:25:37;14.13;;;12.87;;
928;SDS011;451;47.988;7.842;2023-08-24T17:34:41;13.13;;;12.13;;
928;SDS011;451;47.988;7.842;2023-08-24T17:43:45;16.77;;;13.80;;
928;SDS011;451;47.988;7.842;2023-08-24T17:52:49;18.50;;;16.70;;
928;SDS011;451;47.988;7.842;2023-08-24T18:01:53;12.47;;;6.43;;
928;SDS011;451;47.988;7.842;2023-08-24T18:11:01;0.60;;;0.60;;
928;SDS011;451;47.988;7.842;2023-08-24T18:20:06;0.40;;;0.40;;
928;SDS011;451;47.988;7.842;2023-08-24T18:29:11;0.90;;;0.60;;
928;SDS011;451;47.988;7.842;2023-08-24T18:38:14;0.80;;;0.80;;
928;SDS011;451;47.988;7.842;2023-08-24T18:47:19;1.00;;;1.00;;
928;SDS011;451;47.988;7.842;2023-08-24T18:56:22;0.40;;;0.40;;
928;SDS011;451;47.988;7.842;2023-08-24T19:05:27;0.40;;;0.40;;
928;SDS011;451;47.988;7.842;2023-08-24T19:14:30;0.50;;;0.50;;
928;SDS011;451;47.988;7.842;2023-08-24T19:23:37;0.40;;;0.40;;
928;SDS011;451;47.988;7.842;2023-08-24T19:32:40;0.50;;;0.40;;
928;SDS011;451;47.988;7.842;2023-08-24T19:41:45;1.07;;;0.50;;
928;SDS011;451;47.988;7.842;2023-08-24T19:50:49;0.50;;;0.40;;
928;SDS011;451;47.988;7.842;2023-08-24T19:59:54;0.60;;;0.50;;
928;SDS011;451;47.988;7.842;2023-08-24T20:08:57;0.73;;;0.73;;
928;SDS011;451;47.988;7.842;2023-08-24T20:18:02;0.50;;;0.50;;
928;SDS011;451;47.988;7.842;2023-08-24T20:27:05;2.40;;;2.00;;
928;SDS011;451;47.988;7.842;2023-08-24T20:36:11;2.43;;;2.33;;
928;SDS011;451;47.988;7.842;2023-08-24T20:45:14;2.83;;;2.63;;
928;SDS011;451;47.988;7.842;2023-08-24T20:54:19;3.70;;;3.23;;
928;SDS011;451;47.988;7.842;2023-08-24T21:03:22;3.20;;;3.00;;
928;SDS011;451;47.988;7.842;2023-08-24T21:12:27;4.40;;;4.00;;
928;SDS011;451;47.988;7.842;2023-08-24T21:21:30;5.60;;;5.20;;
928;SDS011;451;47.988;7.842;2023-08-24T21:30:34;4.60;;;4.20;;
928;SDS011;451;47.988;7.842;2023-08-24T21:39:38;5.10;;;4.70;;
928;SDS011;451;47.988;7.842;2023-08-24T21:48:43;10.30;;;7.43;;
928;SDS011;451;47.988;7.842;2023-08-24T21:57:46;6.20;;;4.43;;
928;SDS011;451;47.988;7.842;2023-08-24T22:06:54;5.50;;;5.00;;
928;SDS011;451;47.988;7.842;2023-08-24T22:15:57;6.23;;;5.73;;
928;SDS011;451;47.988;7.842;2023-08-24T22:25:03;6.20;;;5.60;;
928;SDS011;451;47.988;7.842;2023-08-24T22:34:07;5.60;;;5.10;;
928;SDS011;451;47.988;7.842;2023-08-24T22:43:11;5.73;;;5.20;;
928;SDS011;451;47.988;7.842;2023-08-24T22:52:14;5.37;;;4.97;;
928;SDS011;451;47.988;7.842;2023-08-24T23:01:19;7.67;;;5.60;;
928;SDS011;451;47.988;7.842;2023-08-24T23:10:23;5.20;;;4.80;;
928;SDS011;451;47.988;7.842;2023-08-24T23:19:28;5.43;;;4.93;;
928;SDS011;451;47.988;7.842;2023-08-24T23:28:33;5.10;;;4.70;;
928;SDS011;451;47.988;7.842;2023-08-24T23:37:37;5.10;;;4.77;;
928;SDS011;451;47.988;7.842;2023-08-24T23:46:42;6.53;;;5.83;;
928;SDS011;451;47.988;7.842;2023-08-24T23:55:46;8.13;;;5.90;;
